createdAt,value
2018-03-15T00:01:59.395Z,5.93
2018-03-15T00:04:33.193Z,6.00
2018-03-15T00:07:01.431Z,5.97
2018-03-15T00:09:29.662Z,6.03
2018-03-15T00:11:57.919Z,6.33
2018-03-15T00:14:26.163Z,6.00
2018-03-15T00:16:56.425Z,5.90
2018-03-15T00:19:24.799Z,6.00
2018-03-15T00:21:53.065Z,5.83
2018-03-15T00:24:21.413Z,6.20
2018-03-15T00:26:50.397Z,5.83
2018-03-15T00:29:18.664Z,6.57
2018-03-15T00:31:47.292Z,6.40
2018-03-15T00:34:15.600Z,6.70
2018-03-15T00:36:43.968Z,5.83
2018-03-15T00:39:12.216Z,6.20
2018-03-15T00:41:43.082Z,6.20
2018-03-15T00:44:11.276Z,6.40
2018-03-15T00:46:40.450Z,6.33
2018-03-15T00:49:09.190Z,6.23
2018-03-15T00:51:38.201Z,6.67
2018-03-15T00:54:06.674Z,6.27
2018-03-15T00:56:37.350Z,6.37
2018-03-15T00:59:05.590Z,6.10
2018-03-15T01:01:34.024Z,6.13
2018-03-15T01:04:03.118Z,6.53
2018-03-15T01:06:34.201Z,6.60
2018-03-15T01:09:03.050Z,6.83
2018-03-15T01:11:36.975Z,6.43
2018-03-15T01:14:06.165Z,6.00
2018-03-15T01:16:34.440Z,7.20
2018-03-15T01:19:04.067Z,6.90
2018-03-15T01:21:33.354Z,6.37
2018-03-15T01:24:04.959Z,6.47
2018-03-15T01:26:38.160Z,6.20
2018-03-15T01:29:08.097Z,6.13
2018-03-15T01:31:38.126Z,6.20
2018-03-15T01:34:07.309Z,7.17
2018-03-15T01:36:38.184Z,7.30
2018-03-15T01:39:07.316Z,7.10
2018-03-15T01:41:35.653Z,6.73
2018-03-15T01:44:03.924Z,7.50
2018-03-15T01:46:34.123Z,7.60
2018-03-15T01:49:02.528Z,7.43
2018-03-15T01:51:30.856Z,7.40
2018-03-15T01:54:01.140Z,7.97
2018-03-15T01:56:30.021Z,8.10
2018-03-15T01:58:58.246Z,7.70
2018-03-15T02:01:29.440Z,7.33
2018-03-15T02:03:57.989Z,7.90
2018-03-15T02:06:26.917Z,8.20
2018-03-15T02:08:55.578Z,7.80
2018-03-15T02:11:23.880Z,8.13
2018-03-15T02:13:52.668Z,8.63
2018-03-15T02:16:22.345Z,8.27
2018-03-15T02:18:51.373Z,8.67
2018-03-15T02:21:19.963Z,8.10
2018-03-15T02:23:48.443Z,8.27
2018-03-15T02:26:18.004Z,8.10
2018-03-15T02:28:47.055Z,8.70
2018-03-15T02:31:15.333Z,8.40
2018-03-15T02:33:43.823Z,8.73
2018-03-15T02:36:12.083Z,9.77
2018-03-15T02:38:40.489Z,8.47
2018-03-15T02:41:09.665Z,8.53
2018-03-15T02:43:39.317Z,8.50
2018-03-15T02:46:09.925Z,9.10
2018-03-15T02:48:39.124Z,9.23
2018-03-15T02:51:07.359Z,9.07
2018-03-15T02:53:35.569Z,9.20
2018-03-15T02:56:03.941Z,9.67
2018-03-15T02:58:32.217Z,9.57
2018-03-15T03:01:00.448Z,9.37
2018-03-15T03:03:29.460Z,9.80
2018-03-15T03:05:57.734Z,9.43
2018-03-15T03:08:25.947Z,9.07
2018-03-15T03:10:54.329Z,9.60
2018-03-15T03:13:23.272Z,9.43
2018-03-15T03:15:53.178Z,9.67
2018-03-15T03:18:22.534Z,9.73
2018-03-15T03:20:50.754Z,10.63
2018-03-15T03:23:19.213Z,9.73
2018-03-15T03:25:47.475Z,10.10
2018-03-15T03:28:15.779Z,9.83
2018-03-15T03:30:44.538Z,11.50
2018-03-15T03:33:12.736Z,10.27
2018-03-15T03:35:41.533Z,10.27
2018-03-15T03:38:09.823Z,10.50
2018-03-15T03:40:39.391Z,9.90
2018-03-15T03:43:07.766Z,9.73
2018-03-15T03:45:36.169Z,10.23
2018-03-15T03:48:05.448Z,10.03
2018-03-15T03:50:33.738Z,10.17
2018-03-15T03:53:02.112Z,10.77
2018-03-15T03:55:32.401Z,9.87
2018-03-15T03:58:00.830Z,10.63
2018-03-15T04:00:29.092Z,11.23
2018-03-15T04:02:57.494Z,10.03
2018-03-15T04:05:25.936Z,10.13
2018-03-15T04:07:54.236Z,10.33
2018-03-15T04:10:22.445Z,11.00
2018-03-15T04:12:50.887Z,10.80
2018-03-15T04:15:20.347Z,11.00
2018-03-15T04:17:48.596Z,10.77
2018-03-15T04:20:17.641Z,11.10
2018-03-15T04:22:45.947Z,11.07
2018-03-15T04:25:14.233Z,11.13
2018-03-15T04:27:42.489Z,10.93
2018-03-15T04:30:14.290Z,12.00
2018-03-15T04:32:43.471Z,10.77
2018-03-15T04:35:12.140Z,10.70
2018-03-15T04:37:40.429Z,10.40
2018-03-15T04:40:08.729Z,10.97
2018-03-15T04:42:37.728Z,11.07
2018-03-15T04:45:06.727Z,11.17
2018-03-15T04:47:37.303Z,11.70
2018-03-15T04:50:05.961Z,10.80
2018-03-15T04:52:34.394Z,10.53
2018-03-15T04:55:02.767Z,10.80
2018-03-15T04:57:31.026Z,10.47
2018-03-15T04:59:59.242Z,10.97
2018-03-15T05:02:27.890Z,10.00
2018-03-15T05:04:56.778Z,11.57
2018-03-15T05:07:25.080Z,10.47
2018-03-15T05:09:53.435Z,11.47
2018-03-15T05:12:21.738Z,10.23
2018-03-15T05:14:50.122Z,10.87
2018-03-15T05:17:18.494Z,10.27
2018-03-15T05:19:46.982Z,11.00
2018-03-15T05:22:15.224Z,10.30
2018-03-15T05:24:43.544Z,10.70
2018-03-15T05:27:12.116Z,11.37
2018-03-15T05:29:40.394Z,10.37
2018-03-15T05:32:08.694Z,10.40
2018-03-15T05:34:36.983Z,10.73
2018-03-15T05:37:05.365Z,10.77
2018-03-15T05:39:33.648Z,10.67
2018-03-15T05:42:01.895Z,10.63
2018-03-15T05:44:30.145Z,10.80
2018-03-15T05:46:58.555Z,10.17
2018-03-15T05:49:26.801Z,10.40
2018-03-15T05:51:55.043Z,11.40
2018-03-15T05:54:24.235Z,10.07
2018-03-15T05:56:53.601Z,10.87
2018-03-15T05:59:22.019Z,10.67
2018-03-15T06:01:51.063Z,10.60
2018-03-15T06:04:19.481Z,10.23
2018-03-15T06:06:47.946Z,10.07
2018-03-15T06:09:16.246Z,10.37
2018-03-15T06:11:45.327Z,10.10
2018-03-15T06:14:13.544Z,9.83
2018-03-15T06:16:41.941Z,10.97
2018-03-15T06:19:10.176Z,11.23
2018-03-15T06:21:38.446Z,10.40
2018-03-15T06:24:06.829Z,9.27
2018-03-15T06:26:36.076Z,10.07
2018-03-15T06:29:05.141Z,9.63
2018-03-15T06:31:33.395Z,9.70
2018-03-15T06:34:01.765Z,9.33
2018-03-15T06:36:30.802Z,8.73
2018-03-15T06:38:59.830Z,9.40
2018-03-15T06:41:28.229Z,9.10
2018-03-15T06:43:57.164Z,8.50
2018-03-15T06:46:26.223Z,9.97
2018-03-15T06:48:54.448Z,8.83
2018-03-15T06:51:23.492Z,9.33
2018-03-15T06:53:51.894Z,9.53
2018-03-15T06:56:21.956Z,9.07
2018-03-15T06:58:50.260Z,9.00
2018-03-15T07:01:18.652Z,9.60
2018-03-15T07:03:46.960Z,9.10
2018-03-15T07:06:16.008Z,8.63
2018-03-15T07:08:44.288Z,8.80
2018-03-15T07:11:12.586Z,9.07
2018-03-15T07:13:40.872Z,8.97
2018-03-15T07:16:09.344Z,9.00
2018-03-15T07:18:37.739Z,8.60
2018-03-15T07:21:06.272Z,8.87
2018-03-15T07:23:35.280Z,8.83
2018-03-15T07:26:03.656Z,8.33
2018-03-15T07:28:32.080Z,8.77
2018-03-15T07:31:00.362Z,8.70
2018-03-15T07:33:29.389Z,8.57
2018-03-15T07:35:58.530Z,8.50
2018-03-15T07:38:26.812Z,7.90
2018-03-15T07:40:55.052Z,8.20
2018-03-15T07:43:23.324Z,8.40
2018-03-15T07:45:51.857Z,8.30
2018-03-15T07:48:21.148Z,8.33
2018-03-15T07:50:49.805Z,7.83
2018-03-15T07:53:18.131Z,7.90
2018-03-15T07:55:46.386Z,8.40
2018-03-15T07:58:14.794Z,8.20
2018-03-15T08:00:43.976Z,8.07
2018-03-15T08:03:12.378Z,7.97
2018-03-15T08:05:40.643Z,8.30
2018-03-15T08:08:08.911Z,8.03
2018-03-15T08:10:37.311Z,8.13
2018-03-15T08:13:05.583Z,7.90
2018-03-15T08:15:33.840Z,7.60
2018-03-15T08:18:02.134Z,7.50
2018-03-15T08:20:30.373Z,7.50
2018-03-15T08:22:58.614Z,7.40
2018-03-15T08:25:27.631Z,7.40
2018-03-15T08:27:57.724Z,7.30
2018-03-15T08:30:25.987Z,7.70
2018-03-15T08:32:54.197Z,7.43
2018-03-15T08:35:23.642Z,7.33
2018-03-15T08:37:51.846Z,7.47
2018-03-15T08:40:20.099Z,7.20
2018-03-15T08:42:48.472Z,7.93
2018-03-15T08:45:16.762Z,7.40
2018-03-15T08:47:45.130Z,6.93
2018-03-15T08:50:13.538Z,7.43
2018-03-15T08:52:41.767Z,7.37
2018-03-15T08:55:10.171Z,7.47
2018-03-15T08:57:38.591Z,6.67
2018-03-15T09:00:06.935Z,7.37
2018-03-15T09:02:36.847Z,7.23
2018-03-15T09:05:05.276Z,7.57
2018-03-15T09:07:34.536Z,7.20
2018-03-15T09:10:02.807Z,6.97
2018-03-15T09:12:31.099Z,7.70
2018-03-15T09:14:59.463Z,7.17
2018-03-15T09:17:27.797Z,6.90
2018-03-15T09:19:56.138Z,7.53
2018-03-15T09:22:25.700Z,7.60
2018-03-15T09:24:53.964Z,7.13
2018-03-15T09:27:23.232Z,7.33
2018-03-15T09:29:51.644Z,7.23
2018-03-15T09:32:20.880Z,7.00
2018-03-15T09:34:49.777Z,6.97
2018-03-15T09:37:18.084Z,6.40
2018-03-15T09:39:46.641Z,7.47
2018-03-15T09:42:14.950Z,6.40
2018-03-15T09:44:44.152Z,6.87
2018-03-15T09:47:13.173Z,6.90
2018-03-15T09:49:41.508Z,7.07
2018-03-15T09:52:09.827Z,6.83
2018-03-15T09:54:38.278Z,6.90
2018-03-15T09:57:07.333Z,6.43
2018-03-15T09:59:35.690Z,6.50
2018-03-15T10:02:04.156Z,6.37
2018-03-15T10:04:32.459Z,6.40
2018-03-15T10:07:00.817Z,6.20
2018-03-15T10:09:29.967Z,6.70
2018-03-15T10:11:58.383Z,7.00
2018-03-15T10:14:27.042Z,6.63
2018-03-15T10:16:55.360Z,5.70
2018-03-15T10:19:23.653Z,6.30
2018-03-15T10:21:51.953Z,6.60
2018-03-15T10:24:20.345Z,5.90
2018-03-15T10:26:49.577Z,6.83
2018-03-15T10:29:18.649Z,6.20
2018-03-15T10:31:47.093Z,6.47
2018-03-15T10:34:15.613Z,6.17
2018-03-15T10:36:44.048Z,6.53
2018-03-15T10:39:12.297Z,6.17
2018-03-15T10:41:41.082Z,7.00
2018-03-15T10:44:10.727Z,6.70
2018-03-15T10:46:39.089Z,6.87
2018-03-15T10:49:07.443Z,6.63
2018-03-15T10:51:35.820Z,7.23
2018-03-15T10:54:04.192Z,7.13
2018-03-15T10:56:32.496Z,7.53
2018-03-15T10:59:01.884Z,8.07
2018-03-15T11:01:36.608Z,7.33
2018-03-15T11:04:10.373Z,7.60
2018-03-15T11:06:44.251Z,7.30
2018-03-15T11:09:14.644Z,8.00
2018-03-15T11:11:42.956Z,7.93
2018-03-15T11:14:11.273Z,7.17
2018-03-15T11:16:39.608Z,7.47
2018-03-15T11:19:08.717Z,8.23
2018-03-15T11:21:37.128Z,7.90
2018-03-15T11:24:05.419Z,7.70
2018-03-15T11:26:33.821Z,8.10
2018-03-15T11:29:02.121Z,8.27
2018-03-15T11:31:31.016Z,7.93
2018-03-15T11:34:00.085Z,9.17
2018-03-15T11:36:28.374Z,8.40
2018-03-15T11:38:56.774Z,8.70
2018-03-15T11:41:25.890Z,8.60
2018-03-15T11:43:54.253Z,9.30
2018-03-15T11:46:22.554Z,8.13
2018-03-15T11:48:50.857Z,9.27
2018-03-15T11:51:19.197Z,9.00
2018-03-15T11:53:48.264Z,8.73
2018-03-15T11:56:16.638Z,8.73
2018-03-15T11:58:45.068Z,8.83
2018-03-15T12:01:13.363Z,8.70
2018-03-15T12:03:41.664Z,8.47
2018-03-15T12:06:09.891Z,8.40
2018-03-15T12:08:38.220Z,9.33
2018-03-15T12:11:07.318Z,8.93
2018-03-15T12:13:35.703Z,8.67
2018-03-15T12:16:03.931Z,9.63
2018-03-15T12:18:33.557Z,9.80
2018-03-15T12:21:02.698Z,8.97
2018-03-15T12:23:31.820Z,9.17
2018-03-15T12:26:00.180Z,9.93
2018-03-15T12:28:32.403Z,10.77
2018-03-15T12:31:00.663Z,10.17
2018-03-15T12:33:28.934Z,10.30
2018-03-15T12:35:57.931Z,10.27
2018-03-15T12:38:26.933Z,10.53
2018-03-15T12:40:55.181Z,11.73
2018-03-15T12:43:23.465Z,12.07
2018-03-15T12:45:51.794Z,12.70
2018-03-15T12:48:20.109Z,12.97
2018-03-15T12:50:48.458Z,12.50
2018-03-15T12:53:16.704Z,13.63
2018-03-15T12:55:44.970Z,13.57
2018-03-15T12:58:14.212Z,12.83
2018-03-15T13:00:42.478Z,13.33
2018-03-15T13:03:10.706Z,13.40
2018-03-15T13:05:39.793Z,13.70
2018-03-15T13:08:08.684Z,13.23
2018-03-15T13:10:37.793Z,13.57
2018-03-15T13:13:06.039Z,13.70
2018-03-15T13:15:34.341Z,12.83
2018-03-15T13:18:02.574Z,13.90
2018-03-15T13:20:30.876Z,14.90
2018-03-15T13:22:59.205Z,14.17
2018-03-15T13:25:27.511Z,13.53
2018-03-15T13:27:55.817Z,15.50
2018-03-15T13:30:24.049Z,14.77
2018-03-15T13:32:53.138Z,14.97
2018-03-15T13:35:21.400Z,14.60
2018-03-15T13:37:50.424Z,14.80
2018-03-15T13:40:18.725Z,14.53
2018-03-15T13:42:46.984Z,15.87
2018-03-15T13:45:15.401Z,14.93
2018-03-15T13:47:45.199Z,14.23
2018-03-15T13:50:19.403Z,13.60
2018-03-15T13:52:48.024Z,15.60
2018-03-15T13:55:16.297Z,14.80
2018-03-15T13:57:45.392Z,14.73
2018-03-15T14:00:13.664Z,15.23
2018-03-15T14:02:41.967Z,15.17
2018-03-15T14:05:10.173Z,14.50
2018-03-15T14:07:39.179Z,15.23
2018-03-15T14:10:07.444Z,16.03
2018-03-15T14:12:35.701Z,15.57
2018-03-15T14:15:04.709Z,14.57
2018-03-15T14:17:33.148Z,14.00
2018-03-15T14:20:01.449Z,13.77
2018-03-15T14:22:29.734Z,14.43
2018-03-15T14:24:57.960Z,14.83
2018-03-15T14:27:26.214Z,14.57
2018-03-15T14:29:54.648Z,13.63
2018-03-15T14:32:22.891Z,13.93
2018-03-15T14:34:51.141Z,14.23
2018-03-15T14:37:20.164Z,13.83
2018-03-15T14:39:48.650Z,13.63
2018-03-15T14:42:16.929Z,12.70
2018-03-15T14:44:45.407Z,14.10
2018-03-15T14:47:13.645Z,14.70
2018-03-15T14:49:42.790Z,13.50
2018-03-15T14:52:11.048Z,13.97
2018-03-15T14:54:40.783Z,13.43
2018-03-15T14:57:09.041Z,12.73
2018-03-15T14:59:37.308Z,13.70
2018-03-15T15:02:05.506Z,13.30
2018-03-15T15:04:33.889Z,12.47
2018-03-15T15:07:02.132Z,12.50
2018-03-15T15:09:30.402Z,11.97
2018-03-15T15:11:59.447Z,12.50
2018-03-15T15:14:27.842Z,13.03
2018-03-15T15:16:56.870Z,13.57
2018-03-15T15:19:26.423Z,13.80
2018-03-15T15:21:54.677Z,13.13
2018-03-15T15:24:22.965Z,13.60
2018-03-15T15:26:51.237Z,12.63
2018-03-15T15:29:19.886Z,13.03
2018-03-15T15:31:49.019Z,13.23
2018-03-15T15:34:17.578Z,13.17
2018-03-15T15:36:46.728Z,11.70
2018-03-15T15:39:15.423Z,10.57
2018-03-15T15:41:43.714Z,10.23
2018-03-15T15:44:11.938Z,10.73
2018-03-15T15:46:41.453Z,10.13
2018-03-15T15:49:09.708Z,8.90
2018-03-15T15:51:38.678Z,9.30
2018-03-15T15:54:07.690Z,9.00
2018-03-15T15:56:36.740Z,9.53
2018-03-15T15:59:05.942Z,8.47
2018-03-15T16:01:34.184Z,9.13
2018-03-15T16:04:02.888Z,8.37
2018-03-15T16:06:31.229Z,8.73
2018-03-15T16:09:00.266Z,8.87
2018-03-15T16:11:28.508Z,8.47
2018-03-15T16:13:56.799Z,8.17
2018-03-15T16:16:25.103Z,9.10
2018-03-15T16:18:53.396Z,8.80
2018-03-15T16:21:21.870Z,8.97
2018-03-15T16:23:50.912Z,9.47
2018-03-15T16:26:20.031Z,9.40
2018-03-15T16:28:49.686Z,9.83
2018-03-15T16:31:19.824Z,9.43
2018-03-15T16:33:49.550Z,10.33
2018-03-15T16:36:20.215Z,10.17
2018-03-15T16:38:48.783Z,9.10
2018-03-15T16:41:17.094Z,10.13
2018-03-15T16:43:45.373Z,10.77
2018-03-15T16:46:14.150Z,11.10
2018-03-15T16:48:42.404Z,10.93
2018-03-15T16:51:10.773Z,10.93
2018-03-15T16:53:40.025Z,11.70
2018-03-15T16:56:09.237Z,11.23
2018-03-15T16:58:37.504Z,10.70
2018-03-15T17:01:05.869Z,11.30
2018-03-15T17:03:34.123Z,12.17
2018-03-15T17:06:02.459Z,13.87
2018-03-15T17:08:32.197Z,14.97
2018-03-15T17:11:01.218Z,15.03
2018-03-15T17:13:29.481Z,15.37
2018-03-15T17:15:59.246Z,14.63
2018-03-15T17:18:27.507Z,14.97
2018-03-15T17:20:55.772Z,15.40
2018-03-15T17:23:24.165Z,16.93
2018-03-15T17:25:52.539Z,16.07
2018-03-15T17:28:20.819Z,16.07
2018-03-15T17:30:49.054Z,15.90
2018-03-15T17:33:18.475Z,16.00
2018-03-15T17:35:46.758Z,15.43
2018-03-15T17:38:15.190Z,16.30
2018-03-15T17:40:45.652Z,16.60
2018-03-15T17:43:14.703Z,16.63
2018-03-15T17:45:43.060Z,16.70
2018-03-15T17:48:11.499Z,15.80
2018-03-15T17:50:39.852Z,17.20
2018-03-15T17:53:08.062Z,17.40
2018-03-15T17:55:37.506Z,19.43
2018-03-15T17:58:05.734Z,20.47
2018-03-15T18:00:34.084Z,24.53
2018-03-15T18:03:03.859Z,19.57
2018-03-15T18:05:32.138Z,19.37
2018-03-15T18:08:00.406Z,19.40
2018-03-15T18:10:28.792Z,19.07
2018-03-15T18:12:57.087Z,19.87
2018-03-15T18:15:25.338Z,17.97
2018-03-15T18:17:53.642Z,18.53
2018-03-15T18:20:21.913Z,16.57
2018-03-15T18:22:50.365Z,17.23
2018-03-15T18:25:18.684Z,15.10
2018-03-15T18:27:47.105Z,15.37
2018-03-15T18:30:16.103Z,15.50
2018-03-15T18:32:44.310Z,14.97
2018-03-15T18:35:12.510Z,15.77
2018-03-15T18:37:40.782Z,16.03
2018-03-15T18:40:09.182Z,16.70
2018-03-15T18:42:37.570Z,17.60
2018-03-15T18:45:05.813Z,17.63
2018-03-15T18:47:34.116Z,17.40
2018-03-15T18:50:03.725Z,18.17
2018-03-15T18:52:32.087Z,18.97
2018-03-15T18:55:01.945Z,20.53
2018-03-15T18:57:31.029Z,20.20
2018-03-15T18:59:59.873Z,21.10
2018-03-15T19:02:29.035Z,20.80
2018-03-15T19:04:57.571Z,19.80
2018-03-15T19:07:26.035Z,19.93
2018-03-15T19:09:54.302Z,22.20
2018-03-15T19:12:22.712Z,21.60
2018-03-15T19:14:50.964Z,22.17
2018-03-15T19:17:19.471Z,22.73
2018-03-15T19:19:47.762Z,22.37
2018-03-15T19:22:16.146Z,22.17
2018-03-15T19:24:44.473Z,23.40
2018-03-15T19:27:13.480Z,23.10
2018-03-15T19:29:41.787Z,23.03
2018-03-15T19:32:10.037Z,23.67
2018-03-15T19:34:38.539Z,23.07
2018-03-15T19:37:06.797Z,24.03
2018-03-15T19:39:35.095Z,24.43
2018-03-15T19:42:03.484Z,24.90
2018-03-15T19:44:31.975Z,24.27
2018-03-15T19:47:00.449Z,24.67
2018-03-15T19:49:28.820Z,25.07
2018-03-15T19:51:57.173Z,25.07
2018-03-15T19:54:25.497Z,23.80
2018-03-15T19:56:54.078Z,23.80
2018-03-15T19:59:22.350Z,23.80
2018-03-15T20:01:50.591Z,24.13
2018-03-15T20:04:18.866Z,24.00
2018-03-15T20:06:47.166Z,24.30
2018-03-15T20:09:15.463Z,24.93
2018-03-15T20:11:43.767Z,25.83
2018-03-15T20:14:12.776Z,24.77
2018-03-15T20:16:41.779Z,24.10
2018-03-15T20:19:19.118Z,25.27
2018-03-15T20:21:49.841Z,24.27
2018-03-15T20:24:24.563Z,25.23
2018-03-15T20:26:53.307Z,26.43
2018-03-15T20:29:22.458Z,26.57
2018-03-15T20:31:50.729Z,28.07
2018-03-15T20:34:19.134Z,26.17
2018-03-15T20:36:54.162Z,27.30
2018-03-15T20:39:28.435Z,27.37
2018-03-15T20:41:56.725Z,27.83
2018-03-15T20:44:25.024Z,27.83
2018-03-15T20:46:59.029Z,29.63
2018-03-15T20:49:27.299Z,29.10
2018-03-15T20:51:55.605Z,31.67
2018-03-15T20:54:24.503Z,30.60
2018-03-15T20:56:52.877Z,31.10
2018-03-15T20:59:21.373Z,30.33
2018-03-15T21:01:49.703Z,32.40
2018-03-15T21:04:18.042Z,31.50
2018-03-15T21:07:03.437Z,33.17
2018-03-15T21:09:42.306Z,30.37
2018-03-15T21:12:11.540Z,31.97
2018-03-15T21:14:42.856Z,33.23
2018-03-15T21:17:12.075Z,31.17
2018-03-15T21:19:41.321Z,34.00
2018-03-15T21:22:10.489Z,34.23
2018-03-15T21:24:38.843Z,34.17
2018-03-15T21:27:07.249Z,35.03
2018-03-15T21:29:36.368Z,32.60
2018-03-15T21:32:05.677Z,35.37
2018-03-15T21:34:33.998Z,36.53
2018-03-15T21:37:03.144Z,36.57
2018-03-15T21:39:31.489Z,37.43
2018-03-15T21:41:59.808Z,37.40
2018-03-15T21:44:28.954Z,36.00
2018-03-15T21:46:57.227Z,37.13
2018-03-15T21:49:25.718Z,37.50
2018-03-15T21:51:54.325Z,36.97
2018-03-15T21:54:24.001Z,37.53
2018-03-15T21:56:52.328Z,37.40
2018-03-15T21:59:21.403Z,36.93
2018-03-15T22:01:51.202Z,38.23
2018-03-15T22:04:19.592Z,37.80
2018-03-15T22:06:48.006Z,37.37
2018-03-15T22:09:18.116Z,35.70
2018-03-15T22:11:47.882Z,38.37
2018-03-15T22:14:16.676Z,36.73
2018-03-15T22:16:44.943Z,36.10
2018-03-15T22:19:13.188Z,37.27
2018-03-15T22:21:42.190Z,38.90
2018-03-15T22:24:11.223Z,41.10
2018-03-15T22:26:40.204Z,42.40
2018-03-15T22:29:08.506Z,40.47
2018-03-15T22:31:36.876Z,38.90
2018-03-15T22:34:05.370Z,37.20
2018-03-15T22:36:34.228Z,36.03
2018-03-15T22:39:02.462Z,37.53
2018-03-15T22:41:30.734Z,38.13
2018-03-15T22:43:59.900Z,38.10
2018-03-15T22:46:28.225Z,35.50
2018-03-15T22:48:56.429Z,37.10
2018-03-15T22:51:24.841Z,34.43
2018-03-15T22:53:53.221Z,34.93
2018-03-15T22:56:21.597Z,34.93
2018-03-15T22:58:49.856Z,35.20
2018-03-15T23:01:18.902Z,36.60
2018-03-15T23:03:47.263Z,36.17
2018-03-15T23:06:15.525Z,36.17
2018-03-15T23:08:43.781Z,33.53
2018-03-15T23:11:12.081Z,32.90
2018-03-15T23:13:40.422Z,30.50
2018-03-15T23:16:08.739Z,30.80
2018-03-15T23:18:36.962Z,31.27
2018-03-15T23:21:06.117Z,29.50
2018-03-15T23:23:34.595Z,29.73
2018-03-15T23:26:03.503Z,28.77
2018-03-15T23:28:31.744Z,30.07
2018-03-15T23:31:00.063Z,31.57
2018-03-15T23:33:28.325Z,32.27
2018-03-15T23:35:56.583Z,29.20
2018-03-15T23:38:24.848Z,29.20
2018-03-15T23:40:53.156Z,29.60
2018-03-15T23:43:21.537Z,30.17
2018-03-15T23:45:49.970Z,30.90
2018-03-15T23:48:19.179Z,30.93
2018-03-15T23:50:49.161Z,29.93
2018-03-15T23:53:18.127Z,30.10
2018-03-15T23:55:46.515Z,28.20
2018-03-15T23:58:15.374Z,28.37
